createdAt,value
2022-08-17T00:00:51.689Z,64.94
2022-08-17T00:01:51.816Z,67.68
2022-08-17T00:02:43.178Z,66.87
2022-08-17T00:03:42.041Z,65.10
2022-08-17T00:04:42.025Z,66.23
2022-08-17T00:05:42.035Z,69.77
2022-08-17T00:06:42.012Z,67.51
2022-08-17T00:07:42.073Z,69.29
2022-08-17T00:08:41.992Z,69.45
2022-08-17T00:09:41.975Z,71.38
2022-08-17T00:10:41.955Z,67.19
2022-08-17T00:11:41.973Z,66.23
2022-08-17T00:12:44.646Z,68.00
2022-08-17T00:13:42.939Z,65.42
2022-08-17T00:14:41.929Z,66.87
2022-08-17T00:15:41.919Z,66.55
2022-08-17T00:16:51.928Z,67.84
2022-08-17T00:17:42.903Z,69.93
2022-08-17T00:19:01.792Z,68.16
2022-08-17T00:19:42.906Z,70.42
2022-08-17T00:20:41.864Z,67.03
2022-08-17T00:22:29.835Z,68.00
2022-08-17T00:22:42.840Z,66.55
2022-08-17T00:23:48.965Z,67.51
2022-08-17T00:24:42.837Z,68.32
2022-08-17T00:25:41.813Z,65.26
2022-08-17T00:26:44.823Z,68.00
2022-08-17T00:27:41.800Z,67.51
2022-08-17T00:28:41.787Z,67.35
2022-08-17T00:29:41.784Z,67.51
2022-08-17T00:30:52.891Z,63.65
2022-08-17T00:31:42.780Z,64.61
2022-08-17T00:33:22.842Z,67.84
2022-08-17T00:33:42.739Z,69.45
2022-08-17T00:34:41.720Z,66.06
2022-08-17T00:35:41.723Z,66.23
2022-08-17T00:36:41.734Z,67.35
2022-08-17T00:37:41.705Z,68.64
2022-08-17T00:38:41.686Z,69.77
2022-08-17T00:39:41.747Z,68.96
2022-08-17T00:40:44.573Z,70.25
2022-08-17T00:41:42.451Z,66.87
2022-08-17T00:42:41.641Z,66.39
2022-08-17T00:43:41.661Z,66.39
2022-08-17T00:44:41.642Z,64.94
2022-08-17T00:45:41.619Z,67.35
2022-08-17T00:46:41.628Z,67.51
2022-08-17T00:47:41.603Z,66.06
2022-08-17T00:48:41.589Z,69.29
2022-08-17T00:49:41.576Z,67.51
2022-08-17T00:50:41.561Z,67.84
2022-08-17T00:51:41.580Z,66.55
2022-08-17T00:52:41.559Z,67.19
2022-08-17T00:53:41.544Z,65.58
2022-08-17T00:54:42.185Z,65.74
2022-08-17T00:55:41.520Z,65.74
2022-08-17T00:56:41.538Z,66.71
2022-08-17T00:57:41.501Z,65.10
2022-08-17T00:58:41.497Z,62.68
2022-08-17T00:59:41.487Z,65.10
2022-08-17T01:00:41.540Z,64.61
2022-08-17T01:01:41.530Z,70.42
2022-08-17T01:02:43.137Z,70.09
2022-08-17T01:03:41.445Z,71.87
2022-08-17T01:04:41.453Z,70.09
2022-08-17T01:05:42.261Z,63.00
2022-08-17T01:06:41.437Z,67.35
2022-08-17T01:07:41.412Z,68.80
2022-08-17T01:08:41.396Z,70.42
2022-08-17T01:09:41.381Z,70.90
2022-08-17T01:10:59.688Z,70.90
2022-08-17T01:11:42.375Z,71.87
2022-08-17T01:12:41.355Z,69.61
2022-08-17T01:13:41.846Z,71.87
2022-08-17T01:14:41.345Z,66.87
2022-08-17T01:15:41.329Z,65.42
2022-08-17T01:16:41.337Z,68.48
2022-08-17T01:17:41.310Z,70.74
2022-08-17T01:18:41.302Z,69.93
2022-08-17T01:19:41.298Z,69.77
2022-08-17T01:20:48.436Z,67.19
2022-08-17T01:21:41.280Z,66.23
2022-08-17T01:22:41.260Z,64.94
2022-08-17T01:23:41.258Z,66.06
2022-08-17T01:24:41.243Z,68.00
2022-08-17T01:25:41.233Z,69.13
2022-08-17T01:26:41.239Z,67.68
2022-08-17T01:27:41.225Z,71.87
2022-08-17T01:28:54.242Z,72.99
2022-08-17T01:29:42.200Z,67.35
2022-08-17T01:30:58.377Z,69.45
2022-08-17T01:31:42.200Z,68.00
2022-08-17T01:32:41.171Z,71.54
2022-08-17T01:33:41.158Z,69.61
2022-08-17T01:34:43.372Z,67.68
2022-08-17T01:35:42.144Z,70.58
2022-08-17T01:36:41.144Z,67.19
2022-08-17T01:37:41.114Z,67.68
2022-08-17T01:38:41.106Z,69.45
2022-08-17T01:39:41.157Z,65.90
2022-08-17T01:40:41.088Z,67.68
2022-08-17T01:41:41.101Z,65.26
2022-08-17T01:42:41.070Z,66.06
2022-08-17T01:43:41.059Z,66.71
2022-08-17T01:44:41.050Z,65.10
2022-08-17T01:45:41.039Z,68.16
2022-08-17T01:46:41.037Z,65.58
2022-08-17T01:47:41.017Z,65.74
2022-08-17T01:48:41.010Z,64.61
2022-08-17T01:49:40.996Z,66.87
2022-08-17T01:50:40.989Z,67.51
2022-08-17T01:51:40.992Z,68.32
2022-08-17T01:52:40.965Z,66.06
2022-08-17T01:53:40.945Z,65.74
2022-08-17T01:54:40.948Z,69.61
2022-08-17T01:55:40.932Z,68.96
2022-08-17T01:56:40.945Z,68.32
2022-08-17T01:57:40.916Z,67.84
2022-08-17T01:58:40.913Z,63.65
2022-08-17T01:59:40.904Z,68.80
2022-08-17T02:00:59.588Z,68.80
2022-08-17T02:01:41.947Z,67.84
2022-08-17T02:02:40.871Z,68.32
2022-08-17T02:03:40.865Z,64.94
2022-08-17T02:04:41.853Z,64.29
2022-08-17T02:05:40.838Z,66.55
2022-08-17T02:06:47.103Z,69.45
2022-08-17T02:07:47.996Z,68.32
2022-08-17T02:09:01.857Z,67.03
2022-08-17T02:09:42.117Z,69.93
2022-08-17T02:10:40.786Z,70.25
2022-08-17T02:11:41.800Z,67.51
2022-08-17T02:12:40.775Z,69.13
2022-08-17T02:13:40.761Z,68.80
2022-08-17T02:14:40.742Z,67.68
2022-08-17T02:15:41.744Z,68.32
2022-08-17T02:16:40.731Z,68.48
2022-08-17T02:17:40.738Z,67.68
2022-08-17T02:18:40.718Z,70.42
2022-08-17T02:19:40.703Z,68.32
2022-08-17T02:20:41.894Z,66.87
2022-08-17T02:21:40.674Z,68.96
2022-08-17T02:22:40.691Z,68.32
2022-08-17T02:23:40.670Z,70.90
2022-08-17T02:24:59.931Z,66.87
2022-08-17T02:25:41.640Z,65.42
2022-08-17T02:26:40.635Z,68.00
2022-08-17T02:27:40.636Z,64.45
2022-08-17T02:28:40.612Z,65.74
2022-08-17T02:29:40.609Z,69.29
2022-08-17T02:30:59.177Z,68.48
2022-08-17T02:31:41.590Z,67.35
2022-08-17T02:32:40.589Z,67.84
2022-08-17T02:33:42.999Z,71.22
2022-08-17T02:34:40.571Z,67.68
2022-08-17T02:35:40.551Z,70.74
2022-08-17T02:36:40.599Z,70.09
2022-08-17T02:37:40.542Z,69.13
2022-08-17T02:38:40.523Z,70.58
2022-08-17T02:39:40.592Z,68.48
2022-08-17T02:40:40.492Z,68.96
2022-08-17T02:41:40.501Z,68.16
2022-08-17T02:42:40.492Z,68.48
2022-08-17T02:43:40.483Z,70.90
2022-08-17T02:44:40.472Z,69.93
2022-08-17T02:45:40.451Z,70.90
2022-08-17T02:46:40.453Z,68.00
2022-08-17T02:47:40.433Z,69.29
2022-08-17T02:48:40.411Z,69.29
2022-08-17T02:49:40.409Z,71.38
2022-08-17T02:50:40.403Z,69.77
2022-08-17T02:51:40.408Z,70.90
2022-08-17T02:52:42.778Z,70.09
2022-08-17T02:53:40.367Z,71.54
2022-08-17T02:54:42.414Z,69.93
2022-08-17T02:55:41.355Z,68.64
2022-08-17T02:56:40.365Z,70.74
2022-08-17T02:57:40.337Z,71.70
2022-08-17T02:58:40.329Z,69.61
2022-08-17T02:59:42.367Z,71.87
2022-08-17T03:00:40.301Z,68.16
2022-08-17T03:01:40.421Z,70.09
2022-08-17T03:02:40.294Z,67.84
2022-08-17T03:03:40.275Z,68.32
2022-08-17T03:04:40.264Z,67.51
2022-08-17T03:05:40.254Z,68.48
2022-08-17T03:06:40.262Z,70.25
2022-08-17T03:07:40.259Z,68.64
2022-08-17T03:08:40.228Z,69.29
2022-08-17T03:09:40.216Z,70.42
2022-08-17T03:10:40.206Z,69.45
2022-08-17T03:11:40.197Z,71.22
2022-08-17T03:12:40.210Z,71.70
2022-08-17T03:13:40.176Z,68.96
2022-08-17T03:14:41.773Z,70.25
2022-08-17T03:15:43.958Z,70.09
2022-08-17T03:16:40.134Z,69.45
2022-08-17T03:17:40.156Z,69.93
2022-08-17T03:18:40.121Z,70.58
2022-08-17T03:19:43.355Z,71.87
2022-08-17T03:20:40.094Z,71.22
2022-08-17T03:21:41.100Z,71.22
2022-08-17T03:22:40.095Z,68.32
2022-08-17T03:23:40.067Z,71.38
2022-08-17T03:24:40.070Z,72.19
2022-08-17T03:25:40.062Z,69.93
2022-08-17T03:26:40.045Z,69.13
2022-08-17T03:27:40.042Z,71.06
2022-08-17T03:28:40.028Z,71.70
2022-08-17T03:29:40.016Z,71.54
2022-08-17T03:30:40.034Z,71.38
2022-08-17T03:31:39.994Z,71.38
2022-08-17T03:32:40.004Z,71.06
2022-08-17T03:33:39.980Z,68.96
2022-08-17T03:34:39.969Z,70.25
2022-08-17T03:35:39.957Z,68.48
2022-08-17T03:36:39.941Z,71.38
2022-08-17T03:37:39.953Z,72.35
2022-08-17T03:38:39.923Z,73.32
2022-08-17T03:39:39.970Z,70.25
2022-08-17T03:40:59.066Z,70.74
2022-08-17T03:41:40.902Z,72.51
2022-08-17T03:42:39.907Z,69.77
2022-08-17T03:43:39.881Z,69.93
2022-08-17T03:44:39.866Z,70.58
2022-08-17T03:45:39.865Z,69.93
2022-08-17T03:46:39.854Z,70.90
2022-08-17T03:47:39.862Z,69.93
2022-08-17T03:48:39.826Z,71.70
2022-08-17T03:49:39.824Z,70.58
2022-08-17T03:50:39.814Z,70.74
2022-08-17T03:51:39.790Z,71.70
2022-08-17T03:52:40.811Z,70.42
2022-08-17T03:53:39.790Z,69.29
2022-08-17T03:54:39.766Z,70.74
2022-08-17T03:55:39.768Z,72.35
2022-08-17T03:56:39.754Z,70.42
2022-08-17T03:57:39.761Z,71.54
2022-08-17T03:58:52.076Z,72.99
2022-08-17T03:59:39.727Z,71.87
2022-08-17T04:00:39.899Z,72.03
2022-08-17T04:01:39.726Z,73.32
2022-08-17T04:02:39.714Z,72.99
2022-08-17T04:03:39.687Z,73.48
2022-08-17T04:04:39.676Z,75.09
2022-08-17T04:05:39.668Z,74.12
2022-08-17T04:06:39.646Z,73.32
2022-08-17T04:07:39.662Z,71.54
2022-08-17T04:08:39.636Z,71.87
2022-08-17T04:09:39.628Z,71.54
2022-08-17T04:10:41.941Z,73.15
2022-08-17T04:11:40.601Z,72.03
2022-08-17T04:12:39.618Z,72.35
2022-08-17T04:13:39.590Z,72.83
2022-08-17T04:14:53.169Z,73.64
2022-08-17T04:15:40.573Z,71.87
2022-08-17T04:16:39.556Z,72.03
2022-08-17T04:17:39.565Z,72.51
2022-08-17T04:18:39.531Z,70.42
2022-08-17T04:19:39.522Z,71.22
2022-08-17T04:20:39.525Z,70.25
2022-08-17T04:21:39.508Z,69.45
2022-08-17T04:22:39.515Z,70.42
2022-08-17T04:23:39.485Z,70.90
2022-08-17T04:24:39.482Z,70.09
2022-08-17T04:25:39.469Z,69.29
2022-08-17T04:26:52.810Z,69.45
2022-08-17T04:27:40.466Z,68.80
2022-08-17T04:28:39.439Z,68.80
2022-08-17T04:29:54.938Z,68.64
2022-08-17T04:30:40.421Z,68.16
2022-08-17T04:31:39.404Z,69.61
2022-08-17T04:33:03.523Z,67.51
2022-08-17T04:33:40.388Z,68.32
2022-08-17T04:34:39.374Z,67.68
2022-08-17T04:35:39.364Z,68.16
2022-08-17T04:36:39.357Z,68.48
2022-08-17T04:37:39.364Z,69.45
2022-08-17T04:38:39.341Z,69.45
2022-08-17T04:39:39.396Z,67.35
2022-08-17T04:40:39.319Z,69.13
2022-08-17T04:41:39.305Z,68.96
2022-08-17T04:42:39.305Z,68.96
2022-08-17T04:43:39.298Z,68.96
2022-08-17T04:44:39.289Z,69.93
2022-08-17T04:45:39.267Z,69.45
2022-08-17T04:46:39.259Z,68.96
2022-08-17T04:47:39.265Z,68.96
2022-08-17T04:48:39.235Z,69.77
2022-08-17T04:49:39.217Z,69.13
2022-08-17T04:50:39.213Z,66.87
2022-08-17T04:51:39.207Z,68.64
2022-08-17T04:52:53.877Z,71.06
2022-08-17T04:53:40.187Z,71.06
2022-08-17T04:54:39.173Z,70.58
2022-08-17T04:55:39.165Z,71.54
2022-08-17T04:56:39.158Z,70.58
2022-08-17T04:57:44.566Z,71.06
2022-08-17T04:58:40.126Z,68.00
2022-08-17T04:59:39.129Z,69.45
2022-08-17T05:00:39.121Z,69.61
2022-08-17T05:01:39.139Z,68.96
2022-08-17T05:02:39.097Z,68.96
2022-08-17T05:03:40.087Z,70.09
2022-08-17T05:04:39.081Z,68.32
2022-08-17T05:05:39.079Z,67.84
2022-08-17T05:06:39.054Z,68.64
2022-08-17T05:07:39.065Z,69.93
2022-08-17T05:08:39.036Z,69.45
2022-08-17T05:09:39.025Z,68.48
2022-08-17T05:10:45.567Z,67.68
2022-08-17T05:11:40.014Z,68.00
2022-08-17T05:12:40.015Z,69.13
2022-08-17T05:13:38.983Z,68.32
2022-08-17T05:14:38.973Z,68.16
2022-08-17T05:15:38.977Z,67.03
2022-08-17T05:16:39.956Z,67.68
2022-08-17T05:17:38.976Z,67.51
2022-08-17T05:18:38.997Z,69.61
2022-08-17T05:19:38.932Z,67.51
2022-08-17T05:20:38.921Z,67.84
2022-08-17T05:21:38.902Z,68.32
2022-08-17T05:22:38.902Z,67.51
2022-08-17T05:23:42.418Z,66.87
2022-08-17T05:24:53.510Z,68.00
2022-08-17T05:25:39.873Z,67.84
2022-08-17T05:26:38.862Z,67.84
2022-08-17T05:27:38.869Z,68.32
2022-08-17T05:28:38.838Z,69.61
2022-08-17T05:29:38.832Z,67.51
2022-08-17T05:30:38.808Z,67.51
2022-08-17T05:31:38.805Z,66.55
2022-08-17T05:32:40.355Z,66.87
2022-08-17T05:33:44.308Z,66.23
2022-08-17T05:34:39.774Z,65.42
2022-08-17T05:35:38.771Z,66.71
2022-08-17T05:36:42.887Z,67.84
2022-08-17T05:37:39.765Z,68.32
2022-08-17T05:38:38.734Z,67.68
2022-08-17T05:39:38.809Z,68.00
2022-08-17T05:40:38.725Z,67.68
2022-08-17T05:41:38.704Z,68.16
2022-08-17T05:42:38.702Z,66.55
2022-08-17T05:43:38.689Z,65.58
2022-08-17T05:44:38.677Z,65.58
2022-08-17T05:45:55.575Z,66.87
2022-08-17T05:46:39.655Z,67.68
2022-08-17T05:47:38.669Z,66.71
2022-08-17T05:48:40.149Z,68.96
2022-08-17T05:49:38.624Z,66.23
2022-08-17T05:50:38.607Z,69.29
2022-08-17T05:51:38.612Z,67.35
2022-08-17T05:52:38.614Z,68.96
2022-08-17T05:53:38.620Z,68.80
2022-08-17T05:54:38.584Z,69.13
2022-08-17T05:55:38.606Z,67.68
2022-08-17T05:56:38.559Z,71.06
2022-08-17T05:57:39.900Z,68.96
2022-08-17T05:58:38.538Z,69.13
2022-08-17T05:59:38.533Z,68.32
2022-08-17T06:00:41.811Z,67.84
2022-08-17T06:01:38.566Z,68.80
2022-08-17T06:02:38.510Z,68.80
2022-08-17T06:03:38.500Z,68.48
2022-08-17T06:04:38.493Z,64.61
2022-08-17T06:05:38.475Z,66.55
2022-08-17T06:06:38.457Z,68.16
2022-08-17T06:07:38.476Z,68.16
2022-08-17T06:08:38.451Z,66.06
2022-08-17T06:09:38.448Z,65.42
2022-08-17T06:10:38.424Z,66.71
2022-08-17T06:11:38.423Z,68.32
2022-08-17T06:12:38.431Z,66.23
2022-08-17T06:13:38.402Z,65.10
2022-08-17T06:14:38.386Z,66.87
2022-08-17T06:15:38.383Z,66.55
2022-08-17T06:16:38.368Z,68.16
2022-08-17T06:17:38.375Z,68.00
2022-08-17T06:18:38.344Z,66.23
2022-08-17T06:19:38.349Z,68.96
2022-08-17T06:20:38.338Z,67.03
2022-08-17T06:21:38.324Z,67.68
2022-08-17T06:22:38.329Z,68.32
2022-08-17T06:23:38.308Z,66.87
2022-08-17T06:24:38.297Z,67.68
2022-08-17T06:25:38.289Z,67.03
2022-08-17T06:26:42.769Z,66.23
2022-08-17T06:27:39.304Z,67.35
2022-08-17T06:28:38.267Z,68.80
2022-08-17T06:29:38.245Z,67.03
2022-08-17T06:30:57.603Z,65.58
2022-08-17T06:31:39.234Z,64.94
2022-08-17T06:32:38.231Z,65.26
2022-08-17T06:33:38.204Z,66.71
2022-08-17T06:34:38.196Z,64.45
2022-08-17T06:35:38.186Z,70.42
2022-08-17T06:36:38.164Z,70.42
2022-08-17T06:37:38.188Z,68.64
2022-08-17T06:38:38.858Z,65.74
2022-08-17T06:39:39.223Z,67.84
2022-08-17T06:40:38.143Z,68.48
2022-08-17T06:41:38.221Z,67.51
2022-08-17T06:43:02.513Z,67.03
2022-08-17T06:43:39.116Z,64.45
2022-08-17T06:44:43.479Z,66.71
2022-08-17T06:45:39.097Z,67.35
2022-08-17T06:46:38.085Z,68.64
2022-08-17T06:47:38.089Z,68.80
2022-08-17T06:48:38.071Z,68.16
2022-08-17T06:49:38.046Z,63.81
2022-08-17T06:50:38.042Z,67.03
2022-08-17T06:51:39.520Z,66.55
2022-08-17T06:52:46.090Z,66.55
2022-08-17T06:53:38.015Z,67.51
2022-08-17T06:54:38.003Z,65.10
2022-08-17T06:55:38.426Z,67.03
2022-08-17T06:56:53.408Z,64.29
2022-08-17T06:57:38.998Z,68.96
2022-08-17T06:58:38.877Z,68.00
2022-08-17T06:59:55.843Z,64.78
2022-08-17T07:00:39.008Z,69.93
2022-08-17T07:01:38.033Z,66.39
2022-08-17T07:02:51.891Z,66.39
2022-08-17T07:03:38.922Z,66.55
2022-08-17T07:04:37.919Z,68.64
2022-08-17T07:05:38.858Z,66.87
2022-08-17T07:06:38.149Z,74.93
2022-08-17T07:07:37.907Z,67.03
2022-08-17T07:08:37.870Z,65.26
2022-08-17T07:09:37.866Z,65.26
2022-08-17T07:10:37.860Z,69.93
2022-08-17T07:11:37.846Z,64.94
2022-08-17T07:12:37.861Z,66.39
2022-08-17T07:13:37.826Z,64.45
2022-08-17T07:14:37.822Z,65.42
2022-08-17T07:15:37.807Z,66.39
2022-08-17T07:16:37.789Z,67.51
2022-08-17T07:17:47.356Z,67.19
2022-08-17T07:18:38.773Z,69.61
2022-08-17T07:19:37.782Z,68.96
2022-08-17T07:20:37.759Z,68.32
2022-08-17T07:21:37.759Z,67.35
2022-08-17T07:22:50.367Z,65.58
2022-08-17T07:23:38.732Z,66.39
2022-08-17T07:24:37.719Z,66.23
2022-08-17T07:25:37.712Z,66.39
2022-08-17T07:26:37.699Z,68.80
2022-08-17T07:27:37.717Z,66.06
2022-08-17T07:28:37.669Z,66.06
2022-08-17T07:29:37.677Z,64.78
2022-08-17T07:30:46.881Z,66.39
2022-08-17T07:31:38.658Z,65.74
2022-08-17T07:32:37.660Z,63.65
2022-08-17T07:33:37.716Z,65.58
2022-08-17T07:34:37.620Z,66.55
2022-08-17T07:35:41.441Z,67.84
2022-08-17T07:36:37.605Z,66.39
2022-08-17T07:37:37.614Z,66.87
2022-08-17T07:38:37.585Z,66.55
2022-08-17T07:39:37.652Z,66.23
2022-08-17T07:40:38.589Z,64.13
2022-08-17T07:41:57.632Z,66.71
2022-08-17T07:42:43.085Z,64.94
2022-08-17T07:43:38.539Z,64.45
2022-08-17T07:44:37.528Z,66.39
2022-08-17T07:45:37.517Z,64.29
2022-08-17T07:46:37.503Z,67.51
2022-08-17T07:47:37.513Z,65.58
2022-08-17T07:48:37.499Z,63.00
2022-08-17T07:49:37.486Z,64.13
2022-08-17T07:50:37.467Z,66.55
2022-08-17T07:51:37.471Z,69.13
2022-08-17T07:52:50.501Z,65.90
2022-08-17T07:53:38.435Z,66.55
2022-08-17T07:54:37.423Z,67.03
2022-08-17T07:55:37.418Z,66.87
2022-08-17T07:56:37.402Z,65.58
2022-08-17T07:57:37.414Z,63.16
2022-08-17T07:58:37.388Z,64.94
2022-08-17T07:59:37.384Z,64.78
2022-08-17T08:00:37.364Z,67.03
2022-08-17T08:01:41.738Z,66.23
2022-08-17T08:02:37.367Z,66.06
2022-08-17T08:03:37.344Z,65.90
2022-08-17T08:05:50.608Z,66.55
2022-08-17T08:06:38.318Z,66.55
2022-08-17T08:07:37.314Z,64.94
2022-08-17T08:08:37.291Z,66.71
2022-08-17T08:09:37.277Z,63.81
2022-08-17T08:10:37.273Z,66.39
2022-08-17T08:11:40.196Z,63.65
2022-08-17T08:12:37.268Z,65.10
2022-08-17T08:13:37.241Z,63.65
2022-08-17T08:14:37.231Z,64.29
2022-08-17T08:15:37.228Z,65.74
2022-08-17T08:16:37.207Z,63.49
2022-08-17T08:17:37.218Z,64.45
2022-08-17T08:18:53.421Z,63.81
2022-08-17T08:19:38.187Z,63.65
2022-08-17T08:20:51.284Z,65.42
2022-08-17T08:21:38.168Z,63.65
2022-08-17T08:22:37.165Z,66.71
2022-08-17T08:23:37.142Z,65.58
2022-08-17T08:24:37.126Z,64.45
2022-08-17T08:25:37.123Z,65.42
2022-08-17T08:26:37.104Z,64.13
2022-08-17T08:27:38.119Z,63.97
2022-08-17T08:28:37.081Z,67.35
2022-08-17T08:29:37.118Z,65.26
2022-08-17T08:30:37.076Z,66.55
2022-08-17T08:31:42.057Z,63.65
2022-08-17T08:32:38.080Z,65.58
2022-08-17T08:33:37.050Z,66.71
2022-08-17T08:34:58.987Z,65.10
2022-08-17T08:35:38.024Z,65.58
2022-08-17T08:37:02.041Z,63.65
2022-08-17T08:37:42.131Z,64.61
2022-08-17T08:38:39.000Z,66.55
2022-08-17T08:39:37.050Z,64.13
2022-08-17T08:40:36.987Z,63.16
2022-08-17T08:41:36.974Z,63.49
2022-08-17T08:42:36.988Z,64.94
2022-08-17T08:43:36.953Z,64.45
2022-08-17T08:45:00.063Z,64.13
2022-08-17T08:45:37.937Z,63.49
2022-08-17T08:46:36.932Z,64.94
2022-08-17T08:47:36.937Z,68.48
2022-08-17T08:48:57.957Z,65.58
2022-08-17T08:50:02.644Z,65.58
2022-08-17T08:50:38.904Z,63.97
2022-08-17T08:51:36.881Z,63.00
2022-08-17T08:52:36.869Z,65.74
2022-08-17T08:53:36.862Z,64.61
2022-08-17T08:54:36.851Z,63.49
2022-08-17T08:55:36.834Z,63.81
2022-08-17T08:56:37.823Z,66.23
2022-08-17T08:57:36.839Z,62.68
2022-08-17T08:58:42.295Z,63.65
2022-08-17T08:59:41.814Z,63.33
2022-08-17T09:00:36.788Z,75.09
2022-08-17T09:01:36.844Z,65.90
2022-08-17T09:02:36.788Z,64.78
2022-08-17T09:03:52.156Z,63.49
2022-08-17T09:05:10.287Z,63.65
2022-08-17T09:05:37.746Z,65.74
2022-08-17T09:06:38.903Z,62.36
2022-08-17T09:07:36.749Z,62.52
2022-08-17T09:08:36.706Z,63.16
2022-08-17T09:09:36.703Z,63.33
2022-08-17T09:10:36.696Z,61.71
2022-08-17T09:11:36.691Z,62.52
2022-08-17T09:12:37.701Z,60.59
2022-08-17T09:13:36.681Z,61.55
2022-08-17T09:14:46.743Z,61.87
2022-08-17T09:15:38.646Z,63.49
2022-08-17T09:16:36.629Z,61.87
2022-08-17T09:17:36.650Z,61.23
2022-08-17T09:19:00.247Z,62.04
2022-08-17T09:19:37.614Z,62.36
2022-08-17T09:20:36.594Z,62.36
2022-08-17T09:21:36.604Z,66.39
2022-08-17T09:22:36.594Z,64.29
2022-08-17T09:23:36.601Z,62.04
2022-08-17T09:24:36.560Z,61.23
2022-08-17T09:25:36.563Z,63.00
2022-08-17T09:26:36.551Z,63.16
2022-08-17T09:27:36.533Z,63.49
2022-08-17T09:28:36.541Z,61.07
2022-08-17T09:29:36.518Z,63.33
2022-08-17T09:30:36.510Z,60.26
2022-08-17T09:31:49.032Z,59.14
2022-08-17T09:32:37.483Z,58.17
2022-08-17T09:33:36.496Z,58.01
2022-08-17T09:34:36.472Z,61.39
2022-08-17T09:35:36.908Z,57.52
2022-08-17T09:36:36.452Z,59.14
2022-08-17T09:37:36.449Z,61.55
2022-08-17T09:38:36.450Z,63.16
2022-08-17T09:39:36.479Z,63.65
2022-08-17T09:40:36.435Z,57.52
2022-08-17T09:41:36.413Z,59.62
2022-08-17T09:42:36.400Z,63.16
2022-08-17T09:43:36.404Z,64.13
2022-08-17T09:44:36.371Z,62.68
2022-08-17T09:45:36.389Z,62.36
2022-08-17T09:46:38.748Z,61.23
2022-08-17T09:47:36.351Z,60.42
2022-08-17T09:48:36.356Z,59.78
2022-08-17T09:49:36.341Z,58.33
2022-08-17T09:51:05.341Z,61.23
2022-08-17T09:51:37.319Z,60.91
2022-08-17T09:52:36.303Z,61.23
2022-08-17T09:53:37.331Z,62.84
2022-08-17T09:54:40.349Z,59.46
2022-08-17T09:55:37.280Z,62.04
2022-08-17T09:56:36.256Z,61.87
2022-08-17T09:57:36.253Z,63.49
2022-08-17T09:58:36.259Z,61.71
2022-08-17T10:00:02.144Z,58.17
2022-08-17T10:00:36.239Z,60.59
2022-08-17T10:01:36.246Z,60.91
2022-08-17T10:02:36.211Z,61.71
2022-08-17T10:03:36.223Z,64.45
2022-08-17T10:04:36.197Z,60.42
2022-08-17T10:05:36.194Z,59.62
2022-08-17T10:06:36.177Z,60.10
2022-08-17T10:07:36.163Z,60.10
2022-08-17T10:08:36.175Z,58.49
2022-08-17T10:09:36.148Z,59.94
2022-08-17T10:10:36.142Z,59.14
2022-08-17T10:11:36.125Z,56.88
2022-08-17T10:12:37.125Z,57.20
2022-08-17T10:13:36.128Z,56.24
2022-08-17T10:14:44.180Z,58.65
2022-08-17T10:15:36.096Z,54.46
2022-08-17T10:16:36.094Z,58.49
2022-08-17T10:17:36.083Z,56.40
2022-08-17T10:18:36.081Z,63.33
2022-08-17T10:19:36.052Z,59.30
2022-08-17T10:20:36.046Z,58.65
2022-08-17T10:21:36.039Z,58.81
2022-08-17T10:22:38.087Z,57.04
2022-08-17T10:23:36.037Z,60.59
2022-08-17T10:24:37.019Z,58.17
2022-08-17T10:25:53.663Z,58.65
2022-08-17T10:26:54.164Z,58.49
2022-08-17T10:27:36.983Z,58.49
2022-08-17T10:28:36.038Z,55.75
2022-08-17T10:29:49.190Z,59.46
2022-08-17T10:30:36.948Z,60.75
2022-08-17T10:31:36.420Z,62.52
2022-08-17T10:32:35.941Z,58.81
2022-08-17T10:33:35.987Z,59.14
2022-08-17T10:34:38.785Z,57.85
2022-08-17T10:35:35.921Z,60.26
2022-08-17T10:36:35.910Z,55.43
2022-08-17T10:37:35.906Z,56.40
2022-08-17T10:38:35.908Z,58.33
2022-08-17T10:39:35.946Z,56.24
2022-08-17T10:40:36.876Z,57.85
2022-08-17T10:41:40.195Z,60.26
2022-08-17T10:42:36.853Z,58.65
2022-08-17T10:43:35.859Z,59.62
2022-08-17T10:44:38.381Z,60.10
2022-08-17T10:45:35.825Z,59.46
2022-08-17T10:46:35.815Z,56.72
2022-08-17T10:47:54.701Z,57.69
2022-08-17T10:48:37.819Z,60.91
2022-08-17T10:49:35.794Z,61.39
2022-08-17T10:50:36.779Z,62.84
2022-08-17T10:51:35.781Z,57.69
2022-08-17T10:52:35.781Z,58.97
2022-08-17T10:53:35.790Z,60.91
2022-08-17T10:54:35.763Z,57.52
2022-08-17T10:55:35.763Z,61.39
2022-08-17T10:56:35.750Z,60.75
2022-08-17T10:57:35.728Z,58.81
2022-08-17T10:58:35.741Z,60.91
2022-08-17T10:59:35.719Z,60.91
2022-08-17T11:00:35.774Z,60.75
2022-08-17T11:01:35.799Z,63.16
2022-08-17T11:02:35.686Z,62.20
2022-08-17T11:03:35.691Z,59.62
2022-08-17T11:04:35.672Z,58.97
2022-08-17T11:05:38.947Z,58.81
2022-08-17T11:06:35.648Z,60.26
2022-08-17T11:07:35.642Z,61.55
2022-08-17T11:08:35.653Z,63.33
2022-08-17T11:09:35.622Z,61.39
2022-08-17T11:10:35.606Z,62.20
2022-08-17T11:11:35.696Z,61.23
2022-08-17T11:12:35.592Z,61.71
2022-08-17T11:13:35.593Z,62.68
2022-08-17T11:14:35.570Z,59.46
2022-08-17T11:15:35.563Z,58.01
2022-08-17T11:16:35.558Z,60.26
2022-08-17T11:17:35.538Z,60.59
2022-08-17T11:18:35.554Z,61.23
2022-08-17T11:19:35.528Z,60.10
2022-08-17T11:20:35.520Z,59.94
2022-08-17T11:21:35.512Z,60.10
2022-08-17T11:22:35.509Z,59.30
2022-08-17T11:23:35.507Z,60.59
2022-08-17T11:24:35.502Z,58.17
2022-08-17T11:25:35.469Z,61.39
2022-08-17T11:26:35.464Z,60.10
2022-08-17T11:27:35.453Z,58.81
2022-08-17T11:28:35.471Z,60.10
2022-08-17T11:29:35.428Z,61.23
2022-08-17T11:30:35.431Z,60.59
2022-08-17T11:31:38.456Z,61.23
2022-08-17T11:32:35.416Z,62.20
2022-08-17T11:33:36.912Z,61.23
2022-08-17T11:34:35.405Z,59.94
2022-08-17T11:35:35.413Z,62.04
2022-08-17T11:36:35.385Z,60.75
2022-08-17T11:37:35.378Z,62.20
2022-08-17T11:38:35.372Z,60.59
2022-08-17T11:39:35.444Z,61.39
2022-08-17T11:40:35.345Z,59.14
2022-08-17T11:41:35.330Z,59.94
2022-08-17T11:42:35.328Z,60.59
2022-08-17T11:43:39.532Z,58.97
2022-08-17T11:44:36.308Z,58.17
2022-08-17T11:45:35.293Z,60.59
2022-08-17T11:46:35.297Z,62.20
2022-08-17T11:47:35.286Z,62.36
2022-08-17T11:48:35.779Z,60.26
2022-08-17T11:49:35.263Z,60.75
2022-08-17T11:50:35.252Z,62.36
2022-08-17T11:51:35.250Z,62.68
2022-08-17T11:52:35.236Z,61.87
2022-08-17T11:53:35.244Z,61.39
2022-08-17T11:54:35.223Z,59.94
2022-08-17T11:55:39.343Z,58.49
2022-08-17T11:56:37.200Z,58.01
2022-08-17T11:57:35.200Z,59.30
2022-08-17T11:58:35.192Z,58.01
2022-08-17T11:59:35.165Z,58.17
2022-08-17T12:00:35.163Z,60.10
2022-08-17T12:01:35.140Z,58.49
2022-08-17T12:02:35.212Z,59.14
2022-08-17T12:03:35.155Z,60.91
2022-08-17T12:04:35.170Z,59.94
2022-08-17T12:05:35.105Z,60.75
2022-08-17T12:06:35.101Z,61.71
2022-08-17T12:07:35.100Z,60.91
2022-08-17T12:08:35.101Z,58.81
2022-08-17T12:09:35.073Z,58.81
2022-08-17T12:10:35.077Z,62.68
2022-08-17T12:12:11.076Z,61.55
2022-08-17T12:12:36.081Z,60.10
2022-08-17T12:13:39.799Z,59.14
2022-08-17T12:15:08.062Z,60.75
2022-08-17T12:15:37.021Z,62.84
2022-08-17T12:16:35.046Z,61.55
2022-08-17T12:17:52.228Z,61.39
2022-08-17T12:18:36.050Z,59.46
2022-08-17T12:19:35.004Z,58.97
2022-08-17T12:20:34.976Z,59.30
2022-08-17T12:21:34.973Z,61.23
2022-08-17T12:22:34.949Z,73.96
2022-08-17T12:23:34.993Z,59.78
2022-08-17T12:24:34.930Z,59.78
2022-08-17T12:25:34.916Z,57.85
2022-08-17T12:26:34.912Z,61.71
2022-08-17T12:28:04.178Z,59.62
2022-08-17T12:28:35.912Z,61.55
2022-08-17T12:29:35.220Z,63.16
2022-08-17T12:30:34.871Z,61.71
2022-08-17T12:31:34.870Z,61.39
2022-08-17T12:32:34.864Z,58.49
2022-08-17T12:33:34.850Z,60.26
2022-08-17T12:34:34.834Z,61.23
2022-08-17T12:35:34.836Z,60.10
2022-08-17T12:36:34.819Z,60.91
2022-08-17T12:37:34.811Z,60.91
2022-08-17T12:38:35.029Z,58.33
2022-08-17T12:39:34.822Z,59.14
2022-08-17T12:40:34.785Z,60.26
2022-08-17T12:41:34.762Z,60.42
2022-08-17T12:42:34.758Z,62.04
2022-08-17T12:43:34.763Z,60.42
2022-08-17T12:44:34.747Z,62.04
2022-08-17T12:45:34.731Z,60.91
2022-08-17T12:46:34.729Z,62.20
2022-08-17T12:47:34.719Z,59.46
2022-08-17T12:48:34.721Z,59.78
2022-08-17T12:49:34.709Z,59.62
2022-08-17T12:50:34.672Z,59.46
2022-08-17T12:51:35.671Z,58.49
2022-08-17T12:52:34.663Z,58.65
2022-08-17T12:53:34.671Z,58.97